createdAt,value
2018-12-13T00:00:53.293Z,86.06
2018-12-13T00:03:20.708Z,86.62
2018-12-13T00:05:48.325Z,86.06
2018-12-13T00:08:15.765Z,86.22
2018-12-13T00:10:43.268Z,85.97
2018-12-13T00:13:10.806Z,85.81
2018-12-13T00:15:38.370Z,86.17
2018-12-13T00:18:05.858Z,85.76
2018-12-13T00:20:33.291Z,85.91
2018-12-13T00:23:00.712Z,85.89
2018-12-13T00:25:28.198Z,85.76
2018-12-13T00:27:55.667Z,85.58
2018-12-13T00:30:23.165Z,85.68
2018-12-13T00:32:50.680Z,85.82
2018-12-13T00:35:18.116Z,85.74
2018-12-13T00:37:45.587Z,85.30
2018-12-13T00:40:13.024Z,85.52
2018-12-13T00:42:40.448Z,85.70
2018-12-13T00:45:07.903Z,86.08
2018-12-13T00:47:35.373Z,85.69
2018-12-13T00:50:02.794Z,86.04
2018-12-13T00:52:30.208Z,85.92
2018-12-13T00:54:57.657Z,86.14
2018-12-13T00:57:25.070Z,85.73
2018-12-13T00:59:52.589Z,85.83
2018-12-13T01:02:20.059Z,85.87
2018-12-13T01:04:47.502Z,86.15
2018-12-13T01:07:14.958Z,85.87
2018-12-13T01:09:42.534Z,85.98
2018-12-13T01:12:09.988Z,85.91
2018-12-13T01:14:37.416Z,85.85
2018-12-13T01:17:04.849Z,85.89
2018-12-13T01:19:32.285Z,85.96
2018-12-13T01:21:59.751Z,86.09
2018-12-13T01:24:27.171Z,85.93
2018-12-13T01:26:54.613Z,85.97
2018-12-13T01:29:22.048Z,86.02
2018-12-13T01:31:49.520Z,86.00
2018-12-13T01:34:16.959Z,86.29
2018-12-13T01:36:44.404Z,86.07
2018-12-13T01:39:11.890Z,86.00
2018-12-13T01:41:39.337Z,86.29
2018-12-13T01:44:06.818Z,86.53
2018-12-13T01:46:34.296Z,86.45
2018-12-13T01:49:01.725Z,86.57
2018-12-13T01:51:29.161Z,87.24
2018-12-13T01:53:56.598Z,86.67
2018-12-13T01:56:24.040Z,86.47
2018-12-13T01:58:51.521Z,86.35
2018-12-13T02:01:19.543Z,86.94
2018-12-13T02:03:47.012Z,86.46
2018-12-13T02:06:14.540Z,87.03
2018-12-13T02:08:42.027Z,87.35
2018-12-13T02:11:09.576Z,87.28
2018-12-13T02:13:36.985Z,87.33
2018-12-13T02:16:04.465Z,87.14
2018-12-13T02:18:31.897Z,87.92
2018-12-13T02:20:59.412Z,87.73
2018-12-13T02:23:26.872Z,88.10
2018-12-13T02:25:54.431Z,87.53
2018-12-13T02:28:21.874Z,87.52
2018-12-13T02:30:49.313Z,87.55
2018-12-13T02:33:16.797Z,87.59
2018-12-13T02:35:44.214Z,87.82
2018-12-13T02:38:11.689Z,87.65
2018-12-13T02:40:39.176Z,87.87
2018-12-13T02:43:06.713Z,88.33
2018-12-13T02:45:34.137Z,88.31
2018-12-13T02:48:01.585Z,88.41
2018-12-13T02:50:29.087Z,88.63
2018-12-13T02:52:56.565Z,88.46
2018-12-13T02:55:23.984Z,88.51
2018-12-13T02:57:51.463Z,89.35
2018-12-13T03:00:18.892Z,88.57
2018-12-13T03:02:46.476Z,89.01
2018-12-13T03:05:13.960Z,89.06
2018-12-13T03:07:41.489Z,89.12
2018-12-13T03:10:08.984Z,89.04
2018-12-13T03:12:36.597Z,89.04
2018-12-13T03:15:04.581Z,89.56
2018-12-13T03:17:31.992Z,89.50
2018-12-13T03:19:59.428Z,89.34
2018-12-13T03:22:26.933Z,89.44
2018-12-13T03:24:54.357Z,89.40
2018-12-13T03:27:21.776Z,89.96
2018-12-13T03:29:49.381Z,89.53
2018-12-13T03:32:16.872Z,89.34
2018-12-13T03:34:44.442Z,89.64
2018-12-13T03:37:11.873Z,90.20
2018-12-13T03:39:39.345Z,90.05
2018-12-13T03:42:06.771Z,90.17
2018-12-13T03:44:34.265Z,89.83
2018-12-13T03:47:01.773Z,90.19
2018-12-13T03:49:29.209Z,90.24
2018-12-13T03:51:56.749Z,90.17
2018-12-13T03:54:24.187Z,89.92
2018-12-13T03:56:51.601Z,90.28
2018-12-13T03:59:19.101Z,90.12
2018-12-13T04:01:46.573Z,90.65
2018-12-13T04:04:14.013Z,90.52
2018-12-13T04:06:41.437Z,90.33
2018-12-13T04:09:08.885Z,90.36
2018-12-13T04:11:36.298Z,90.51
2018-12-13T04:14:03.738Z,90.13
2018-12-13T04:16:31.176Z,90.24
2018-12-13T04:18:58.681Z,90.34
2018-12-13T04:21:26.156Z,90.23
2018-12-13T04:23:53.691Z,90.18
2018-12-13T04:26:21.144Z,89.96
2018-12-13T04:28:48.552Z,90.06
2018-12-13T04:31:16.058Z,89.59
2018-12-13T04:33:43.493Z,89.76
2018-12-13T04:36:10.957Z,90.01
2018-12-13T04:38:38.377Z,89.85
2018-12-13T04:41:05.854Z,89.41
2018-12-13T04:43:33.279Z,89.69
2018-12-13T04:46:00.718Z,90.08
2018-12-13T04:48:28.256Z,89.42
2018-12-13T04:50:55.690Z,89.70
2018-12-13T04:53:23.158Z,89.33
2018-12-13T04:55:50.585Z,89.65
2018-12-13T04:58:18.065Z,89.32
2018-12-13T05:00:45.524Z,89.99
2018-12-13T05:03:12.995Z,90.15
2018-12-13T05:05:40.435Z,89.84
2018-12-13T05:08:07.918Z,90.22
2018-12-13T05:10:50.167Z,89.96
2018-12-13T05:13:17.849Z,90.27
2018-12-13T05:15:45.294Z,90.25
2018-12-13T05:18:13.011Z,90.12
2018-12-13T05:20:40.439Z,90.57
2018-12-13T05:23:07.890Z,89.99
2018-12-13T05:25:35.728Z,90.33
2018-12-13T05:28:03.153Z,90.38
2018-12-13T05:30:30.678Z,90.26
2018-12-13T05:32:58.137Z,89.91
2018-12-13T05:35:25.570Z,90.48
2018-12-13T05:37:52.981Z,90.24
2018-12-13T05:40:20.451Z,90.31
2018-12-13T05:42:47.973Z,90.21
2018-12-13T05:45:15.415Z,90.34
2018-12-13T05:47:42.893Z,90.90
2018-12-13T05:50:10.380Z,90.35
2018-12-13T05:52:37.906Z,90.73
2018-12-13T05:55:05.473Z,90.40
2018-12-13T05:57:33.013Z,90.56
2018-12-13T06:00:00.492Z,90.52
2018-12-13T06:02:27.936Z,90.25
2018-12-13T06:04:55.362Z,90.48
2018-12-13T06:07:22.848Z,90.38
2018-12-13T06:09:50.297Z,90.69
2018-12-13T06:12:17.748Z,90.77
2018-12-13T06:14:45.210Z,90.59
2018-12-13T06:17:12.655Z,90.26
2018-12-13T06:19:40.148Z,90.59
2018-12-13T06:22:07.591Z,90.39
2018-12-13T06:24:35.025Z,90.46
2018-12-13T06:27:02.613Z,90.32
2018-12-13T06:29:30.153Z,90.57
2018-12-13T06:31:57.587Z,90.49
2018-12-13T06:34:25.034Z,90.63
2018-12-13T06:36:52.537Z,90.44
2018-12-13T06:39:19.983Z,90.58
2018-12-13T06:41:47.396Z,90.43
2018-12-13T06:44:14.819Z,90.42
2018-12-13T06:46:42.259Z,90.45
2018-12-13T06:49:09.681Z,90.31
2018-12-13T06:51:37.113Z,90.33
2018-12-13T06:54:04.525Z,90.65
2018-12-13T06:56:31.967Z,90.51
2018-12-13T06:58:59.400Z,90.48
2018-12-13T07:01:26.828Z,90.29
2018-12-13T07:03:54.363Z,90.44
2018-12-13T07:06:21.808Z,90.38
2018-12-13T07:08:49.269Z,90.09
2018-12-13T07:11:16.686Z,89.68
2018-12-13T07:13:44.098Z,89.77
2018-12-13T07:16:11.535Z,89.55
2018-12-13T07:18:38.985Z,90.34
2018-12-13T07:21:06.467Z,90.20
2018-12-13T07:23:33.890Z,89.89
2018-12-13T07:26:01.315Z,90.04
2018-12-13T07:28:29.128Z,90.31
2018-12-13T07:30:56.641Z,90.47
2018-12-13T07:33:24.073Z,90.07
2018-12-13T07:35:51.616Z,90.12
2018-12-13T07:38:19.039Z,90.30
2018-12-13T07:40:46.511Z,90.23
2018-12-13T07:43:13.951Z,90.36
2018-12-13T07:45:41.393Z,89.88
2018-12-13T07:48:08.899Z,90.06
2018-12-13T07:50:36.321Z,89.83
2018-12-13T07:53:03.763Z,89.75
2018-12-13T07:55:31.253Z,89.80
2018-12-13T07:57:58.696Z,89.34
2018-12-13T08:00:26.195Z,89.80
2018-12-13T08:02:53.725Z,89.76
2018-12-13T08:05:21.207Z,89.56
2018-12-13T08:07:48.636Z,89.83
2018-12-13T08:10:16.121Z,89.79
2018-12-13T08:12:43.586Z,89.35
2018-12-13T08:15:11.028Z,89.92
2018-12-13T08:17:38.510Z,89.85
2018-12-13T08:20:06.446Z,89.83
2018-12-13T08:22:33.875Z,89.40
2018-12-13T08:25:01.290Z,89.52
2018-12-13T08:27:28.833Z,89.39
2018-12-13T08:29:56.363Z,89.23
2018-12-13T08:32:23.831Z,89.52
2018-12-13T08:34:51.263Z,89.29
2018-12-13T08:37:18.760Z,88.88
2018-12-13T08:39:46.189Z,89.08
2018-12-13T08:42:13.616Z,89.18
2018-12-13T08:44:41.135Z,88.54
2018-12-13T08:47:08.565Z,88.88
2018-12-13T08:49:36.007Z,88.53
2018-12-13T08:52:03.477Z,88.59
2018-12-13T08:54:30.906Z,88.31
2018-12-13T08:56:58.598Z,88.32
2018-12-13T08:59:26.013Z,87.88
2018-12-13T09:01:53.594Z,87.85
2018-12-13T09:04:21.189Z,87.78
2018-12-13T09:06:48.651Z,87.58
2018-12-13T09:09:16.063Z,87.29
2018-12-13T09:11:43.478Z,87.10
2018-12-13T09:14:10.908Z,86.62
2018-12-13T09:16:38.335Z,86.75
2018-12-13T09:19:05.817Z,87.19
2018-12-13T09:21:33.232Z,86.52
2018-12-13T09:24:00.743Z,86.61
2018-12-13T09:26:28.173Z,86.68
2018-12-13T09:28:55.641Z,86.26
2018-12-13T09:31:23.125Z,86.07
2018-12-13T09:33:50.547Z,85.98
2018-12-13T09:36:18.012Z,85.72
2018-12-13T09:38:45.441Z,85.70
2018-12-13T09:41:12.861Z,85.28
2018-12-13T09:43:40.277Z,85.82
2018-12-13T09:46:07.724Z,85.25
2018-12-13T09:48:35.149Z,85.45
2018-12-13T09:51:02.565Z,85.06
2018-12-13T09:53:29.988Z,84.92
2018-12-13T09:55:57.401Z,84.70
2018-12-13T09:58:24.941Z,84.69
2018-12-13T10:00:52.483Z,84.36
2018-12-13T10:03:19.945Z,84.09
2018-12-13T10:05:47.362Z,83.98
2018-12-13T10:08:14.796Z,83.78
2018-12-13T10:10:42.314Z,83.54
2018-12-13T10:13:10.796Z,83.74
2018-12-13T10:15:38.394Z,83.70
2018-12-13T10:18:05.828Z,83.25
2018-12-13T10:20:33.288Z,83.14
2018-12-13T10:23:00.732Z,82.15
2018-12-13T10:25:28.160Z,81.75
2018-12-13T10:27:55.651Z,81.40
2018-12-13T10:30:23.093Z,81.64
2018-12-13T10:32:50.565Z,81.45
2018-12-13T10:35:17.995Z,80.50
2018-12-13T10:37:45.481Z,80.24
2018-12-13T10:40:12.944Z,79.76
2018-12-13T10:42:40.481Z,79.39
2018-12-13T10:45:08.093Z,78.34
2018-12-13T10:47:35.599Z,78.53
2018-12-13T10:50:03.253Z,77.70
2018-12-13T10:52:30.725Z,77.65
2018-12-13T10:54:58.186Z,77.35
2018-12-13T10:57:25.613Z,76.87
2018-12-13T10:59:53.101Z,76.42
2018-12-13T11:02:26.083Z,76.56
2018-12-13T11:05:00.261Z,76.38
2018-12-13T11:07:27.747Z,76.62
2018-12-13T11:09:55.211Z,76.33
2018-12-13T11:12:22.650Z,75.45
2018-12-13T11:14:50.076Z,75.60
2018-12-13T11:17:17.600Z,76.19
2018-12-13T11:19:45.133Z,76.43
2018-12-13T11:22:12.617Z,75.33
2018-12-13T11:24:40.040Z,75.34
2018-12-13T11:30:26.157Z,75.30
2018-12-13T11:32:53.579Z,74.98
2018-12-13T11:35:20.998Z,75.12
2018-12-13T11:37:48.435Z,75.39
2018-12-13T11:40:15.848Z,74.94
2018-12-13T11:42:43.277Z,75.65
2018-12-13T11:45:10.700Z,75.18
2018-12-13T11:47:38.117Z,74.45
2018-12-13T11:50:05.989Z,75.08
2018-12-13T11:52:33.491Z,74.66
2018-12-13T11:58:08.153Z,74.90
2018-12-13T12:00:35.588Z,75.04
2018-12-13T12:03:03.016Z,74.98
2018-12-13T12:05:30.537Z,74.43
2018-12-13T12:07:58.052Z,74.94
2018-12-13T12:10:25.478Z,74.94
2018-12-13T12:12:52.995Z,75.06
2018-12-13T12:15:20.416Z,75.04
2018-12-13T12:17:47.892Z,74.91
2018-12-13T12:20:15.374Z,75.00
2018-12-13T12:22:42.796Z,75.32
2018-12-13T12:25:10.253Z,74.92
2018-12-13T12:27:37.814Z,74.83
2018-12-13T12:30:05.749Z,74.95
2018-12-13T12:32:33.245Z,75.05
2018-12-13T12:35:00.716Z,74.22
2018-12-13T12:37:28.171Z,74.80
2018-12-13T12:39:55.709Z,74.79
2018-12-13T12:42:23.173Z,73.84
2018-12-13T12:44:50.652Z,74.15
2018-12-13T12:47:18.189Z,74.13
2018-12-13T12:49:45.761Z,74.39
2018-12-13T12:52:13.186Z,74.59
2018-12-13T12:54:40.669Z,74.79
2018-12-13T12:57:08.127Z,75.07
2018-12-13T12:59:35.572Z,74.91
2018-12-13T13:02:03.044Z,74.82
2018-12-13T13:04:30.490Z,75.20
2018-12-13T13:06:57.941Z,74.88
2018-12-13T13:09:25.424Z,75.52
2018-12-13T13:11:52.913Z,75.50
2018-12-13T13:14:20.537Z,74.52
2018-12-13T13:16:47.996Z,74.91
2018-12-13T13:19:15.410Z,75.07
2018-12-13T13:21:42.924Z,75.03
2018-12-13T13:24:10.553Z,75.14
2018-12-13T13:26:37.995Z,75.20
2018-12-13T13:29:05.469Z,74.58
2018-12-13T13:31:32.939Z,74.96
2018-12-13T13:34:00.369Z,74.76
2018-12-13T13:36:27.845Z,75.09
2018-12-13T13:38:55.321Z,75.24
2018-12-13T13:41:22.775Z,75.21
2018-12-13T13:43:50.207Z,75.65
2018-12-13T13:46:17.651Z,74.77
2018-12-13T13:48:45.067Z,74.87
2018-12-13T13:51:12.532Z,74.19
2018-12-13T13:53:40.051Z,74.60
2018-12-13T13:56:07.611Z,74.47
2018-12-13T13:58:35.079Z,74.36
2018-12-13T14:01:02.543Z,74.47
2018-12-13T14:03:29.983Z,74.72
2018-12-13T14:05:57.452Z,74.72
2018-12-13T14:08:24.904Z,74.60
2018-12-13T14:10:52.336Z,74.13
2018-12-13T14:13:19.761Z,74.26
2018-12-13T14:15:47.174Z,74.00
2018-12-13T14:18:14.617Z,73.96
2018-12-13T14:20:42.083Z,73.52
2018-12-13T14:23:09.763Z,73.28
2018-12-13T14:25:37.297Z,72.71
2018-12-13T14:28:04.706Z,73.27
2018-12-13T14:30:32.228Z,73.47
2018-12-13T14:32:59.652Z,73.47
2018-12-13T14:35:27.139Z,73.15
2018-12-13T14:37:54.583Z,73.09
2018-12-13T14:40:22.025Z,73.00
2018-12-13T14:42:49.498Z,72.71
2018-12-13T14:45:16.923Z,73.02
2018-12-13T14:47:44.406Z,73.23
2018-12-13T14:50:11.832Z,73.54
2018-12-13T14:52:39.428Z,73.81
2018-12-13T14:55:06.963Z,73.41
2018-12-13T14:57:34.455Z,72.91
2018-12-13T15:00:01.886Z,73.17
2018-12-13T15:02:29.320Z,73.11
2018-12-13T15:04:56.809Z,73.27
2018-12-13T15:07:24.231Z,73.69
2018-12-13T15:09:51.745Z,73.79
2018-12-13T15:12:19.189Z,73.62
2018-12-13T15:14:46.629Z,74.00
2018-12-13T15:17:14.207Z,74.33
2018-12-13T15:19:41.630Z,73.82
2018-12-13T15:22:09.069Z,74.06
2018-12-13T15:24:36.529Z,74.21
2018-12-13T15:27:04.043Z,73.92
2018-12-13T15:29:31.484Z,73.93
2018-12-13T15:31:59.556Z,74.25
2018-12-13T15:34:27.430Z,73.93
2018-12-13T15:36:54.838Z,74.32
2018-12-13T15:39:22.284Z,74.74
2018-12-13T15:41:49.723Z,74.81
2018-12-13T15:44:17.158Z,74.96
2018-12-13T15:46:44.637Z,75.39
2018-12-13T15:49:12.064Z,75.33
2018-12-13T15:51:39.505Z,75.86
2018-12-13T15:54:06.981Z,76.22
2018-12-13T15:56:34.445Z,76.06
2018-12-13T15:59:01.863Z,76.20
2018-12-13T16:01:29.446Z,76.28
2018-12-13T16:03:56.913Z,76.37
2018-12-13T16:06:24.340Z,76.79
2018-12-13T16:08:51.760Z,76.70
2018-12-13T16:11:19.304Z,76.44
2018-12-13T16:13:46.847Z,76.92
2018-12-13T16:16:14.253Z,76.83
2018-12-13T16:18:41.747Z,76.36
2018-12-13T16:21:09.313Z,76.32
2018-12-13T16:23:36.784Z,76.26
2018-12-13T16:26:04.208Z,76.55
2018-12-13T16:28:31.773Z,76.35
2018-12-13T16:30:59.244Z,76.47
2018-12-13T16:33:26.686Z,76.35
2018-12-13T16:35:54.160Z,76.27
2018-12-13T16:38:21.592Z,75.55
2018-12-13T16:40:49.006Z,75.68
2018-12-13T16:43:16.637Z,75.29
2018-12-13T16:45:44.193Z,75.34
2018-12-13T16:48:11.636Z,75.65
2018-12-13T16:50:39.054Z,75.57
2018-12-13T16:53:06.565Z,75.34
2018-12-13T16:55:33.995Z,75.22
2018-12-13T16:58:01.431Z,74.76
2018-12-13T17:00:28.932Z,74.15
2018-12-13T17:02:56.376Z,74.36
2018-12-13T17:05:23.835Z,74.14
2018-12-13T17:07:51.293Z,73.99
2018-12-13T17:10:18.768Z,73.09
2018-12-13T17:12:46.205Z,73.19
2018-12-13T17:15:13.772Z,73.04
2018-12-13T17:17:41.189Z,73.22
2018-12-13T17:20:08.657Z,73.71
2018-12-13T17:22:36.133Z,73.93
2018-12-13T17:25:03.987Z,73.99
2018-12-13T17:27:31.463Z,74.09
2018-12-13T17:29:58.892Z,75.14
2018-12-13T17:32:26.345Z,75.13
2018-12-13T17:34:53.767Z,75.42
2018-12-13T17:37:21.185Z,75.87
2018-12-13T17:39:48.621Z,76.48
2018-12-13T17:42:16.117Z,77.17
2018-12-13T17:44:43.789Z,76.98
2018-12-13T17:47:11.220Z,76.76
2018-12-13T17:49:38.649Z,77.37
2018-12-13T17:52:06.137Z,77.40
2018-12-13T17:54:33.591Z,77.94
2018-12-13T17:57:01.040Z,78.04
2018-12-13T17:59:28.449Z,78.68
2018-12-13T18:01:55.883Z,78.27
2018-12-13T18:04:23.311Z,78.27
2018-12-13T18:06:50.769Z,78.96
2018-12-13T18:09:18.209Z,78.76
2018-12-13T18:11:45.700Z,79.48
2018-12-13T18:14:13.189Z,79.75
2018-12-13T18:16:43.482Z,79.48
2018-12-13T18:19:10.225Z,79.68
2018-12-13T18:21:37.770Z,80.09
2018-12-13T18:24:05.248Z,80.08
2018-12-13T18:26:32.681Z,80.23
2018-12-13T18:29:00.164Z,80.45
2018-12-13T18:31:27.704Z,80.64
2018-12-13T18:33:55.172Z,80.26
2018-12-13T18:36:22.592Z,80.76
2018-12-13T18:38:50.087Z,81.09
2018-12-13T18:41:17.504Z,81.11
2018-12-13T18:43:44.986Z,81.30
2018-12-13T18:46:12.416Z,81.70
2018-12-13T18:48:39.905Z,81.63
2018-12-13T18:51:07.326Z,81.96
2018-12-13T18:53:34.746Z,82.26
2018-12-13T18:56:02.177Z,82.29
2018-12-13T18:58:29.644Z,82.21
2018-12-13T19:00:57.157Z,82.40
2018-12-13T19:03:24.663Z,82.61
2018-12-13T19:05:52.140Z,82.93
2018-12-13T19:08:19.841Z,82.95
2018-12-13T19:10:47.316Z,83.31
2018-12-13T19:13:15.598Z,83.70
2018-12-13T19:15:43.008Z,83.57
2018-12-13T19:18:10.490Z,83.69
2018-12-13T19:20:37.914Z,83.94
2018-12-13T19:23:05.420Z,84.26
2018-12-13T19:25:32.993Z,84.49
2018-12-13T19:28:00.445Z,84.65
2018-12-13T19:30:27.881Z,84.84
2018-12-13T19:32:55.306Z,85.32
2018-12-13T19:35:22.759Z,84.94
2018-12-13T19:37:50.717Z,85.30
2018-12-13T19:40:18.338Z,85.55
2018-12-13T19:42:45.807Z,85.74
2018-12-13T19:45:13.358Z,86.02
2018-12-13T19:47:40.868Z,86.00
2018-12-13T19:50:09.654Z,86.22
2018-12-13T19:52:37.383Z,86.25
2018-12-13T19:55:06.620Z,86.04
2018-12-13T19:57:34.127Z,86.14
2018-12-13T20:00:01.551Z,86.48
2018-12-13T20:02:29.054Z,86.65
2018-12-13T20:04:56.517Z,86.44
2018-12-13T20:07:23.972Z,86.67
2018-12-13T20:09:51.418Z,86.80
2018-12-13T20:12:18.881Z,86.61
2018-12-13T20:14:46.349Z,86.95
2018-12-13T20:17:13.785Z,86.51
2018-12-13T20:19:41.208Z,86.51
2018-12-13T20:22:08.707Z,86.54
2018-12-13T20:24:36.125Z,86.72
2018-12-13T20:27:03.639Z,86.67
2018-12-13T20:29:31.313Z,86.45
2018-12-13T20:31:58.945Z,86.10
2018-12-13T20:34:26.422Z,86.38
2018-12-13T20:36:53.866Z,86.55
2018-12-13T20:39:21.520Z,86.21
2018-12-13T20:41:48.995Z,86.18
2018-12-13T20:44:16.537Z,86.53
2018-12-13T20:46:43.964Z,86.26
2018-12-13T20:49:11.398Z,86.22
2018-12-13T20:51:38.907Z,86.35
2018-12-13T20:54:06.457Z,85.90
2018-12-13T20:56:33.902Z,86.20
2018-12-13T20:59:01.405Z,85.89
2018-12-13T21:01:28.847Z,86.48
2018-12-13T21:03:56.281Z,86.28
2018-12-13T21:06:23.720Z,86.47
2018-12-13T21:08:51.155Z,86.43
2018-12-13T21:11:18.643Z,86.75
2018-12-13T21:13:46.128Z,86.37
2018-12-13T21:16:13.551Z,86.43
2018-12-13T21:18:41.106Z,86.21
2018-12-13T21:21:08.688Z,86.48
2018-12-13T21:23:36.269Z,86.27
2018-12-13T21:26:03.778Z,86.06
2018-12-13T21:28:31.293Z,86.75
2018-12-13T21:30:58.833Z,86.83
2018-12-13T21:33:26.259Z,86.91
2018-12-13T21:35:53.690Z,86.30
2018-12-13T21:38:21.189Z,86.24
2018-12-13T21:40:48.661Z,86.61
2018-12-13T21:43:16.104Z,86.25
2018-12-13T21:45:43.539Z,86.36
2018-12-13T21:48:10.996Z,86.37
2018-12-13T21:50:38.427Z,86.46
2018-12-13T21:53:05.851Z,86.42
2018-12-13T21:55:33.300Z,86.26
2018-12-13T21:58:00.755Z,86.41
2018-12-13T22:00:28.186Z,86.76
2018-12-13T22:02:55.682Z,86.59
2018-12-13T22:05:23.119Z,86.73
2018-12-13T22:07:50.607Z,86.78
2018-12-13T22:10:18.039Z,86.38
2018-12-13T22:12:45.588Z,86.46
2018-12-13T22:15:13.166Z,87.21
2018-12-13T22:17:40.590Z,87.22
2018-12-13T22:20:08.010Z,87.03
2018-12-13T22:22:35.535Z,86.90
2018-12-13T22:25:03.003Z,86.97
2018-12-13T22:27:30.451Z,87.32
2018-12-13T22:29:57.909Z,87.54
2018-12-13T22:32:25.372Z,87.33
2018-12-13T22:34:52.841Z,87.68
2018-12-13T22:37:20.320Z,87.42
2018-12-13T22:39:47.759Z,87.30
2018-12-13T22:42:15.178Z,87.64
2018-12-13T22:44:42.651Z,87.76
2018-12-13T22:47:10.118Z,87.72
2018-12-13T22:49:37.670Z,88.23
2018-12-13T22:52:05.124Z,87.97
2018-12-13T22:54:32.548Z,87.98
2018-12-13T22:57:00.031Z,88.30
2018-12-13T22:59:27.473Z,87.86
2018-12-13T23:01:54.938Z,88.06
2018-12-13T23:04:22.425Z,87.87
2018-12-13T23:06:49.873Z,88.23
2018-12-13T23:09:17.341Z,88.24
2018-12-13T23:11:44.757Z,87.95
2018-12-13T23:14:12.233Z,87.91
2018-12-13T23:16:39.690Z,88.07
2018-12-13T23:19:07.147Z,87.92
2018-12-13T23:21:34.603Z,87.56
2018-12-13T23:24:02.026Z,87.71
2018-12-13T23:26:29.436Z,88.07
2018-12-13T23:28:56.985Z,87.79
2018-12-13T23:31:24.403Z,87.58
2018-12-13T23:33:51.851Z,87.79
2018-12-13T23:36:19.328Z,87.94
2018-12-13T23:38:46.749Z,87.93
2018-12-13T23:41:14.248Z,87.88
2018-12-13T23:43:41.676Z,87.74
2018-12-13T23:46:09.095Z,87.58
2018-12-13T23:48:36.616Z,87.82
2018-12-13T23:51:04.083Z,87.73
2018-12-13T23:53:31.872Z,87.71
2018-12-13T23:55:59.556Z,87.98
2018-12-13T23:58:27.128Z,88.25
